METAR Formatted Surface Weather Observation
Issued by NWS

Home | Current Version | Previous Version | Text Only | Print | Product List | Glossary On
Versions: 1 2 3 4 5 6 7 8
000
SAUS42 KJAX 211557
MTRNPA
METAR KNPA 211556Z 16012KT 10SM SCT012 BKN250 24/20 A3033 RMK AO2
SLP272 SCT012 V BKN T02440200 $



USA.gov is the U.S. government's official web portal to all federal, state and local government web resources and services.